Latest Coastal Weather Observations for Merimbula

IDN60701

Issued at 1:01 pm EST Sunday 19 April 2015 (issued every 10 minutes, with the page automatically refreshed every 10 minutes)

About coastal observations | Map of coastal stations | Coastal observations for NSW | Marine services | Other Formats
Station Details ID: 069147 Name: MERIMBULA AIRPORT AWS Lat: -36.91 Lon: 149.90 Height: 1.5 m
Data from the previous 72 hours. | See also: Recent months at Merimbula
Date/Time
EST
Temp

°C
Wind Pressure Rain
since 9am
mm
Weather Cloud Vis
km
Sea
Height
m
Swell
Dir
 
Speed
knots
Gust
knots
hPa Trend Height
m
Period
s
Dir
19/01:00pm 15.7 SW 12 19 1022.3 - 0.0 - Mostly clear 10 - - - -
19/12:30pm 15.4 SW 8 15 1022.1 - 0.0 - Partly cloudy 10 - - - -
19/12:00pm 15.2 SW 5 9 1022.1 - 0.0 - Partly cloudy 10 - - - -
19/11:30am 14.9 SW 5 8 1022.1 - 0.0 - Cloudy 10 - - - -
19/11:00am 14.9 WSW 5 8 1021.8 - 0.0 - Cloudy 10 - - - -
19/10:30am 14.4 SW 3 8 1021.6 - 0.0 - Cloudy 10 - - - -
19/10:00am 14.0 SW 4 7 1021.3 - 0.0 - Cloudy 10 - - - -
19/09:30am 13.7 SW 5 9 1021.0 - 0.0 - Cloudy 10 - - - -
19/09:00am 13.4 WSW 7 12 1020.5 - 10.2 - Cloudy 10 - - - -
19/08:30am 13.4 WSW 7 11 1020.0 - 10.2 - Cloudy 10 - - - -
19/08:00am 13.4 SW 5 8 1019.4 - 10.2 - Cloudy 10 - - - -
19/07:30am 12.9 SSW 9 14 1018.7 - 10.2 - Partly cloudy 10 - - - -
19/07:00am 12.8 SW 10 17 1018.1 - 10.2 - - 10 - - - -
19/06:30am 12.7 WSW 10 15 1017.3 - 10.2 - - 10 - - - -
19/06:00am 12.3 SW 5 8 1016.7 - 10.2 - - 10 - - - -
19/05:30am 12.6 SW 6 11 1016.2 - 10.2 - - 10 - - - -
19/05:00am 12.9 SSW 7 11 1015.8 - 10.2 - - 10 - - - -
19/04:30am 13.4 S 8 12 1015.4 - 10.2 - - 10 - - - -
19/04:00am 13.6 S 7 11 1014.9 - 10.2 - - 10 - - - -
19/03:30am 13.9 S 7 9 1014.3 - 10.2 - Partly cloudy 10 - - - -
19/03:00am 13.6 SSW 5 6 1013.8 - 10.2 - Mostly clear 10 - - - -
19/02:30am 14.0 CALM 0 0 1013.8 - 10.2 - Partly cloudy 10 - - - -
19/02:00am 14.3 CALM 0 0 1013.8 - 10.2 - Partly cloudy 10 - - - -
19/01:54am 14.3 SE 1 4 1013.8 - 10.2 - Cloudy 9 - - - -
19/01:39am 14.5 SW 4 6 1013.9 - 10.2 - Partly cloudy 5 - - - -
19/01:30am 14.6 SW 5 7 1013.8 - 9.6 - Partly cloudy 10 - - - -
19/01:00am 14.9 W 6 10 1013.6 - 9.6 - Partly cloudy 10 - - - -
19/12:39am 15.3 SW 1 4 1013.4 - 9.6 - Partly cloudy 10 - - - -
19/12:30am 15.3 S 4 7 1013.3 - 9.6 - Partly cloudy 7 - - - -
19/12:21am 15.4 SSW 7 9 1013.1 - 9.4 - Partly cloudy 5 - - - -
 
Date/Time
EST
Temp

°C
Wind Pressure Rain
since 9am
mm
Weather Cloud Vis
km
Sea
Height
m
Swell
Dir
 
Speed
knots
Gust
knots
hPa Trend Height
m
Period
s
Dir
18/11:30pm 17.0 S 5 7 1012.8 - 9.0 - Partly cloudy 10 - - - -
18/11:00pm 17.4 CALM 0 0 1012.3 - 9.0 - Partly cloudy 10 - - - -
18/10:39pm 17.7 CALM 0 0 1012.1 - 9.0 - Partly cloudy 6 - - - -
18/10:30pm 17.7 CALM 0 0 1011.5 - 8.8 - Partly cloudy 6 - - - -
18/10:00pm 17.8 CALM 0 0 1011.4 - 8.8 - Partly cloudy 5 - - - -
18/09:30pm 18.0 CALM 0 0 1011.5 - 8.6 - Partly cloudy 5 - - - -
18/09:02pm 18.1 WNW 4 5 1012.1 - 7.8 - Partly cloudy 5 - - - -
18/09:00pm 18.1 W 4 5 1012.1 - 7.6 Rain Cloudy 6 - - - -
18/08:30pm 18.2 CALM 0 0 1012.2 - 5.0 - Partly cloudy 4 - - - -
18/08:27pm 18.2 CALM 0 0 1012.0 - 4.8 - Partly cloudy 5 - - - -
18/08:17pm 18.3 SSW 2 5 1011.8 - 4.4 - Partly cloudy 6 - - - -
18/08:00pm 18.4 CALM 0 0 1011.8 - 4.0 - Partly cloudy 3 - - - -
18/07:34pm 18.7 SSW 5 8 1011.8 - 1.2 - Partly cloudy 5 - - - -
18/07:30pm 18.7 S 6 10 1011.4 - 1.0 - Partly cloudy 6 - - - -
18/07:00pm 19.1 SSE 10 14 1010.8 - 0.0 - Partly cloudy 10 - - - -
18/06:30pm 18.5 CALM 0 0 1010.3 - 0.0 - Partly cloudy 7 - - - -
18/06:00pm 18.6 CALM 0 0 1009.5 - 0.0 - Mostly clear 10 - - - -
18/05:30pm 18.8 CALM 0 0 1009.5 - 0.0 - Partly cloudy 10 - - - -
18/05:00pm 19.0 CALM 0 0 1009.6 - 0.0 - Partly cloudy 10 - - - -
18/04:30pm 19.4 CALM 0 0 1009.6 - 0.0 - Partly cloudy 10 - - - -
18/04:00pm 19.8 SW 3 5 1009.8 - 0.0 - Partly cloudy 10 - - - -
18/03:30pm 20.1 SW 4 6 1009.5 - 0.0 - - 10 - - - -
18/03:00pm 20.4 SSW 5 6 1009.5 - 0.0 - Mostly clear 10 - - - -
18/02:30pm 20.7 NW 1 4 1009.8 - 0.0 - Partly cloudy 10 - - - -
18/02:00pm 20.1 CALM 0 3 1009.8 - 0.0 - Partly cloudy 10 - - - -
18/01:30pm 20.1 CALM 0 0 1010.2 - 0.0 - - 6 - - - -
18/01:00pm 20.0 CALM 0 0 1010.6 - 0.0 - Partly cloudy 10 - - - -
18/12:30pm 19.6 CALM 0 0 1011.1 - 0.0 - - 10 - - - -
18/12:00pm 19.2 NE 1 3 1012.0 - 0.0 - Partly cloudy 10 - - - -
18/11:30am 19.2 NW 5 7 1012.2 - 0.0 - - 10 - - - -
18/11:00am 19.0 NW 7 10 1012.4 - 0.0 - - 10 - - - -
18/10:30am 19.1 CALM 0 4 1012.6 - 0.0 - - 10 - - - -
18/10:00am 18.6 NNW 4 8 1012.8 - 0.0 - - 10 - - - -
18/09:30am 18.3 NNW 5 7 1013.2 - 0.0 - - 10 - - - -
18/09:00am 18.1 N 5 7 1013.5 - 2.0 - Mostly cloudy 10 - - - -
18/08:30am 17.8 N 4 5 1013.6 - 2.0 - - 10 - - - -
18/08:00am 17.6 N 3 4 1013.5 - 2.0 - - 10 - - - -
18/07:30am 17.3 NNE 4 5 1013.4 - 2.0 - - 10 - - - -
18/07:00am 17.0 NW 4 6 1013.4 - 1.8 - - 10 - - - -
18/06:30am 16.4 CALM 0 0 1013.3 - 1.8 - - 10 - - - -
18/06:00am 15.9 CALM 0 0 1013.4 - 1.8 - Mostly cloudy 10 - - - -
18/05:30am 16.2 CALM 0 0 1013.2 - 1.8 - - 10 - - - -
18/05:00am 16.2 CALM 0 0 1013.4 - 1.8 - - 10 - - - -
18/04:30am 16.5 CALM 0 0 1013.8 - 1.8 - - 10 - - - -
18/04:00am 16.8 CALM 0 0 1013.8 - 1.8 - Partly cloudy 10 - - - -
18/03:30am 16.9 CALM 0 0 1013.9 - 1.8 - - 10 - - - -
18/03:00am 16.9 CALM 0 0 1013.8 - 1.8 - Mostly clear 10 - - - -
18/02:30am 17.0 CALM 0 0 1014.3 - 1.8 - - 10 - - - -
18/02:00am 16.8 CALM 0 0 1014.8 - 1.8 - - 10 - - - -
18/01:30am 16.6 CALM 0 0 1015.2 - 1.8 - Partly cloudy 10 - - - -
18/01:00am 16.6 CALM 0 0 1015.7 - 1.8 - Partly cloudy 10 - - - -
18/12:30am 16.6 CALM 0 0 1015.8 - 1.8 - Partly cloudy 10 - - - -
18/12:00am 16.7 CALM 0 0 1015.9 - 1.8 - Partly cloudy 10 - - - -
 
Date/Time
EST
Temp

°C
Wind Pressure Rain
since 9am
mm
Weather Cloud Vis
km
Sea
Height
m
Swell
Dir
 
Speed
knots
Gust
knots
hPa Trend Height
m
Period
s
Dir
17/11:30pm 16.8 CALM 0 0 1016.4 - 1.8 - Partly cloudy 10 - - - -
17/11:00pm 16.8 NNW 5 8 1016.8 - 1.8 - - 10 - - - -
17/10:30pm 16.8 NW 6 8 1017.0 - 1.8 - Partly cloudy 10 - - - -
17/10:00pm 16.7 CALM 0 0 1017.2 - 1.6 - Partly cloudy 10 - - - -
17/09:30pm 16.9 CALM 0 0 1017.5 - 1.6 - Partly cloudy 10 - - - -
17/09:00pm 16.5 CALM 0 0 1017.7 - 1.6 Recent precip. Partly cloudy 10 - - - -
17/08:30pm 16.5 CALM 0 0 1018.3 - 1.6 - Partly cloudy 9 - - - -
17/08:00pm 16.6 CALM 0 0 1018.5 - 1.4 - Partly cloudy 6 - - - -
17/07:30pm 16.8 CALM 0 0 1018.5 - 1.2 - Partly cloudy 9 - - - -
17/07:00pm 17.0 CALM 0 0 1018.9 - 1.2 - Partly cloudy 8 - - - -
17/06:30pm 17.1 CALM 0 0 1019.0 - 1.0 - Partly cloudy 10 - - - -
17/06:00pm 17.1 NNW 5 7 1019.4 - 1.0 - Cloudy 10 - - - -
17/05:41pm 17.0 N 5 8 1019.3 - 1.0 - Partly cloudy 7 - - - -
17/05:33pm 17.0 N 5 7 1019.3 - 1.0 - Partly cloudy 9 - - - -
17/05:30pm 17.0 NNW 4 7 1019.3 - 1.0 - Partly cloudy 10 - - - -
17/05:17pm 17.0 NW 4 7 1019.5 - 1.0 - Partly cloudy 5 - - - -
17/05:15pm 17.0 NW 5 7 1019.5 - 1.0 - - 5 - - - -
17/05:00pm 16.9 NW 3 6 1019.5 - 1.0 - Partly cloudy 9 - - - -
17/04:40pm 16.8 CALM 0 0 1019.5 - 0.8 - Partly cloudy 5 - - - -
17/04:39pm 16.8 CALM 0 0 1019.5 - 0.8 - Partly cloudy 6 - - - -
17/04:30pm 16.7 CALM 0 0 1019.4 - 0.8 - Partly cloudy 6 - - - -
17/04:05pm 16.6 CALM 0 0 1019.7 - 0.8 - Partly cloudy 5 - - - -
17/04:03pm 16.7 CALM 0 0 1019.7 - 0.8 - Partly cloudy 7 - - - -
17/04:00pm 16.7 CALM 0 0 1019.8 - 0.8 - Partly cloudy 9 - - - -
17/03:51pm 16.7 CALM 0 0 1020.0 - 0.8 - Partly cloudy 10 - - - -
17/03:30pm 16.5 CALM 0 0 1020.5 - 0.8 - Partly cloudy 9 - - - -
17/03:14pm 16.4 NNE 3 5 1020.7 - 0.8 - Partly cloudy 8 - - - -
17/03:00pm 16.4 NNE 3 6 1020.8 - 0.6 Recent precip. - 8 - - - -
17/02:30pm 16.6 NNE 4 6 1020.9 - 0.6 - - 8 - - - -
17/02:00pm 16.6 NNE 1 6 1021.4 - 0.2 - - 10 - - - -
17/01:30pm 16.6 CALM 0 0 1021.8 - 0.2 - Cloudy 8 - - - -
17/01:00pm 16.7 N 2 4 1022.4 - 0.0 - - 9 - - - -
17/12:30pm 16.8 CALM 0 0 1023.1 - 0.0 - - - - - - -
17/12:00pm 16.7 CALM 0 0 1023.7 - 0.0 - Partly cloudy 10 - - - -
17/11:30am 16.5 CALM 0 0 1024.2 - 0.0 - - 10 - - - -
17/11:00am 16.3 CALM 0 0 1024.7 - 0.0 - - 10 - - - -
17/10:30am 15.9 CALM 0 0 1025.0 - 0.0 - - 10 - - - -
17/10:00am 15.9 CALM 0 0 1025.2 - 0.0 - - 10 - - - -
17/09:30am 15.5 W 1 4 1025.4 - 0.0 - - 10 - - - -
17/09:00am 15.3 W 3 5 1025.7 - 0.2 - - 10 - - - -
17/08:30am 15.0 W 4 6 1025.5 - 0.2 - - 10 - - - -
17/08:00am 14.7 CALM 0 0 1025.4 - 0.2 - Partly cloudy 10 - - - -
17/07:30am 14.5 W 4 5 1025.3 - 0.2 - Cloudy 10 - - - -
17/07:00am 14.5 W 4 6 1025.0 - 0.2 - Cloudy 10 - - - -
17/06:54am 14.6 W 4 5 1025.0 - 0.2 - Cloudy 10 - - - -
17/06:30am 14.6 SW 4 6 1024.7 - 0.2 - Partly cloudy 10 - - - -
17/06:24am 14.6 SSW 5 7 1024.7 - 0.2 - Partly cloudy 10 - - - -
17/06:00am 14.6 CALM 0 0 1024.6 - 0.2 - Partly cloudy 10 - - - -
17/05:30am 14.6 CALM 0 0 1024.1 - 0.2 - Cloudy 10 - - - -
17/05:00am 14.8 CALM 0 0 1024.1 - 0.2 - Cloudy 9 - - - -
17/04:30am 14.9 CALM 0 0 1023.9 - 0.2 - Cloudy 8 - - - -
17/04:03am 15.0 CALM 0 0 1023.6 - 0.2 - Cloudy 9 - - - -
17/04:00am 15.0 CALM 0 0 1023.6 - 0.2 - Cloudy 10 - - - -
17/03:30am 14.9 CALM 0 0 1023.4 - 0.2 - Cloudy 10 - - - -
17/03:00am 15.1 CALM 0 0 1023.4 - 0.2 - Mostly cloudy 10 - - - -
17/02:39am 15.2 CALM 0 0 1023.6 - 0.2 - Cloudy 10 - - - -
17/02:30am 15.2 CALM 0 0 1023.8 - 0.2 - Partly cloudy 10 - - - -
17/02:00am 15.5 CALM 0 0 1024.4 - 0.2 - Partly cloudy 7 - - - -
17/01:30am 16.2 CALM 0 0 1025.0 - 0.0 - Cloudy 10 - - - -
17/01:00am 16.3 SSE 3 6 1024.9 - 0.0 - Partly cloudy 10 - - - -
17/12:30am 16.5 SSE 4 6 1024.7 - 0.0 - Partly cloudy 10 - - - -
17/12:00am 16.6 S 4 6 1024.9 - 0.0 - Cloudy 10 - - - -
 
Date/Time
EST
Temp

°C
Wind Pressure Rain
since 9am
mm
Weather Cloud Vis
km
Sea
Height
m
Swell
Dir
 
Speed
knots
Gust
knots
hPa Trend Height
m
Period
s
Dir
16/11:30pm 16.6 SSW 5 7 1025.2 - 0.0 - Cloudy 10 - - - -
16/11:00pm 16.7 SSW 6 8 1025.0 - 0.0 - Cloudy 10 - - - -
16/10:30pm 16.9 SSW 8 10 1024.9 - 0.0 - - 10 - - - -
16/10:00pm 17.1 S 7 9 1024.6 - 0.0 - Cloudy 10 - - - -
16/09:30pm 17.3 SSW 4 7 1024.6 - 0.0 - Cloudy 10 - - - -
16/09:00pm 17.5 S 3 6 1024.4 - 0.0 - Cloudy 10 - - - -
16/08:30pm 17.8 S 3 6 1024.2 - 0.0 - Cloudy 10 - - - -
16/08:00pm 18.0 SSW 4 6 1024.0 - 0.0 - Cloudy 10 - - - -
16/07:30pm 18.1 SSW 5 7 1023.3 - 0.0 - - 10 - - - -
16/07:00pm 18.3 S 6 9 1023.1 - 0.0 - - 10 - - - -
16/06:30pm 18.4 SSE 6 9 1022.8 - 0.0 - - 10 - - - -
16/06:00pm 18.6 S 6 9 1022.4 - 0.0 - - 10 - - - -
16/05:30pm 18.9 S 9 13 1022.0 - 0.0 - - 10 - - - -
16/05:00pm 19.2 SSE 8 12 1021.8 - 0.0 - - 10 - - - -
16/04:30pm 19.5 S 7 11 1021.3 - 0.0 - - 10 - - - -
16/04:00pm 19.9 S 11 15 1020.9 - 0.0 - - 10 - - - -
16/03:30pm 21.2 S 9 15 1020.5 - 0.0 - - 10 - - - -
16/03:00pm 20.6 SSE 13 19 1020.5 - 0.0 - - 10 - - - -
16/02:30pm 21.8 SE 11 15 1020.3 - 0.0 - - 10 - - - -
16/02:00pm 22.5 SSE 10 15 1020.3 - 0.0 - - 10 - - - -
16/01:30pm 23.5 SSE 11 17 1020.2 - 0.0 - - 10 - - - -

Other Formats:

Comma delimited format used in spreadsheet applications
http://www.bom.gov.au/fwo/IDN60701/IDN60701.95929.axf

JavaScript Object Notation format (JSON) in row-major order
http://www.bom.gov.au/fwo/IDN60701/IDN60701.95929.json